Time;durP1;ratioP1;P1;durP2;ratioP2;P2;SDS_P1;SDS_P2;PMS_P1;PMS_P2;Temp;Humidity;BMP_temperature;BMP_pressure;BME280_temperature;BME280_humidity;BME280_pressure;Samples;Min_cycle;Max_cycle;Signal;HPM_P1;HPM_P2
2024/03/14 03:35:24;;;;;;;12.50;9.40;;;;;;;12.73;75.43;99581.34;6097252;23;20019;-88
2024/03/14 03:37:54;;;;;;;17.33;9.90;;;;;;;12.73;75.58;99586.63;6072338;23;20026;-87
2024/03/14 03:43:50;;;;;;;11.05;8.95;;;;;;;12.72;75.34;99584.94;6097068;23;20022;-88
2024/03/14 03:46:17;;;;;;;14.18;10.27;;;;;;;12.72;75.47;99590.22;6072191;23;20385;-88
2024/03/14 03:49:03;;;;;;;13.05;9.45;;;;;;;12.68;75.14;99571.13;6071811;23;20022;-88
2024/03/14 03:51:30;;;;;;;12.45;9.57;;;;;;;12.72;75.44;99569.97;6072385;23;20026;-88
2024/03/14 03:53:57;;;;;;;10.82;9.10;;;;;;;12.73;75.34;99574.28;6048042;23;20028;-88
2024/03/14 03:56:57;;;;;;;12.35;9.50;;;;;;;12.69;75.01;99569.31;6072202;23;20053;-88
2024/03/14 03:59:24;;;;;;;15.45;10.43;;;;;;;12.74;75.29;99575.09;6071952;23;20026;-88
2024/03/14 04:02:04;;;;;;;13.32;9.85;;;;;;;12.70;74.86;99576.28;6072277;23;20081;-88
2024/03/14 04:04:32;;;;;;;14.65;9.95;;;;;;;12.73;75.19;99570.78;6097583;23;20026;-88
2024/03/14 04:06:59;;;;;;;14.75;10.13;;;;;;;12.72;75.24;99567.31;6071683;23;20048;-87
2024/03/14 04:13:11;;;;;;;14.25;9.85;;;;;;;12.72;75.00;99567.31;6097161;23;20022;-88
2024/03/14 04:19:24;;;;;;;11.48;9.77;;;;;;;12.73;74.87;99565.50;6097004;23;20071;-88
2024/03/14 04:22:26;;;;;;;10.95;8.93;;;;;;;12.68;74.63;99567.63;6097363;23;20026;-88
2024/03/14 04:24:52;;;;;;;13.68;10.30;;;;;;;12.71;74.88;99568.25;6072088;23;20392;-88
2024/03/14 04:27:20;;;;;;;13.60;9.68;;;;;;;12.71;74.80;99562.97;6072048;23;20065;-88
2024/03/14 04:29:59;;;;;;;13.63;10.15;;;;;;;12.68;74.55;99572.91;6071851;23;20026;-88
2024/03/14 04:32:26;;;;;;;12.98;10.27;;;;;;;12.72;74.88;99571.75;6072898;23;20074;-88
2024/03/14 04:35:10;;;;;;;12.80;10.43;;;;;;;12.67;74.08;99566.75;6099161;23;20110;-88
2024/03/14 04:37:37;;;;;;;14.88;10.73;;;;;;;12.70;74.69;99566.56;6073492;23;20026;-88
2024/03/14 04:40:12;;;;;;;12.50;10.18;;;;;;;12.71;74.66;99564.78;6073901;23;20461;-88
2024/03/14 04:42:42;;;;;;;14.57;10.55;;;;;;;12.71;74.69;99567.41;6069361;23;20022;-88
2024/03/14 04:45:11;;;;;;;15.48;11.13;;;;;;;12.70;74.47;99565.72;6098783;23;20030;-88
2024/03/14 04:51:47;;;;;;;13.07;10.70;;;;;;;12.67;74.02;99561.47;6098858;23;20391;-87
2024/03/14 04:54:14;;;;;;;14.73;11.25;;;;;;;12.71;74.36;99567.41;6073745;23;20122;-87
2024/03/14 04:56:41;;;;;;;16.02;11.07;;;;;;;12.69;74.13;99566.66;6098972;23;20349;-88
2024/03/14 05:02:55;;;;;;;14.48;10.80;;;;;;;12.67;74.31;99563.31;6098767;23;20022;-88
2024/03/14 05:08:46;;;;;;;13.20;10.98;;;;;;;12.62;74.41;99566.25;6098826;23;20019;-88
2024/03/14 05:11:13;;;;;;;15.50;11.30;;;;;;;12.59;74.48;99564.66;6073594;23;20456;-88
2024/03/14 05:17:20;;;;;;;13.57;11.15;;;;;;;12.54;74.28;99572.06;6098557;23;20483;-88
2024/03/14 05:20:17;;;;;;;19.15;12.75;;;;;;;12.47;74.10;99576.91;6073461;23;20098;-88
2024/03/14 05:22:44;;;;;;;13.57;11.05;;;;;;;12.49;74.08;99572.34;6073480;23;20022;-88
2024/03/14 05:25:44;;;;;;;14.07;10.68;;;;;;;12.40;73.97;99573.00;6073388;23;20389;-88
2024/03/14 05:28:10;;;;;;;17.08;10.93;;;;;;;12.42;74.27;99567.59;6073349;23;20456;-88
2024/03/14 05:31:08;;;;;;;22.45;11.85;;;;;;;12.32;73.71;99567.38;6073369;23;20457;-88
2024/03/14 05:33:35;;;;;;;17.27;11.50;;;;;;;12.32;74.07;99568.25;6072971;23;20026;-88
2024/03/14 05:36:03;;;;;;;16.63;12.50;;;;;;;12.27;74.17;99554.50;6098298;23;20091;-87
2024/03/14 05:38:29;;;;;;;14.98;11.25;;;;;;;12.25;73.95;99564.31;6072996;23;20037;-88
2024/03/14 05:40:58;;;;;;;18.02;12.23;;;;;;;12.20;74.04;99553.22;6073352;23;20093;-88
2024/03/14 05:43:45;;;;;;;18.20;12.77;;;;;;;12.12;73.96;99559.03;6072814;23;20512;-87
2024/03/14 05:46:12;;;;;;;15.57;12.38;;;;;;;12.12;73.82;99562.50;6072920;23;20132;-88
2024/03/14 05:48:54;;;;;;;19.73;12.50;;;;;;;12.04;74.03;99563.94;6073277;23;20413;-88
2024/03/14 05:51:20;;;;;;;18.02;12.85;;;;;;;12.04;73.88;99554.22;6098132;23;20022;-88
2024/03/14 05:53:48;;;;;;;15.63;12.50;;;;;;;12.01;74.26;99551.78;6098427;23;20029;-87
2024/03/14 05:56:33;;;;;;;18.27;13.00;;;;;;;11.91;74.02;99554.19;6073235;23;20026;-88
2024/03/14 05:58:59;;;;;;;18.23;13.90;;;;;;;11.93;74.20;99548.81;6073036;23;20101;-88
2024/03/14 06:01:27;;;;;;;18.10;12.73;;;;;;;11.89;74.28;99545.50;6098292;23;20029;-88
2024/03/14 06:03:59;;;;;;;16.60;12.27;;;;;;;11.83;74.45;99540.66;6098316;23;20101;-88
2024/03/14 06:06:26;;;;;;;17.50;13.38;;;;;;;11.84;74.23;99542.34;6073071;23;20032;-88
2024/03/14 06:09:14;;;;;;;16.67;13.10;;;;;;;11.78;74.60;99564.69;6073108;23;20022;-88
2024/03/14 09:08:24;;;;;;;9.77;7.82;;;;;;;13.76;72.69;99567.06;6097756;23;20073;-89
2024/03/14 09:10:55;;;;;;;9.25;7.55;;;;;;;13.81;72.74;99564.97;6071397;23;20022;-87
2024/03/14 09:13:23;;;;;;;10.38;7.20;;;;;;;13.85;71.97;99562.06;6072203;23;20101;-87
2024/03/14 09:15:50;;;;;;;12.20;7.93;;;;;;;13.88;72.29;99551.25;6071685;23;20022;-87
2024/03/14 09:18:19;;;;;;;9.02;6.90;;;;;;;13.91;72.36;99559.81;6071435;23;20106;-88
2024/03/14 09:20:48;;;;;;;8.82;6.95;;;;;;;13.93;71.92;99563.19;6071577;23;20026;-87
2024/03/14 09:23:19;;;;;;;8.27;6.47;;;;;;;13.98;71.79;99559.38;6097082;23;20459;-88
2024/03/14 09:25:47;;;;;;;11.75;7.07;;;;;;;14.02;72.42;99556.34;6071298;23;20093;-87
2024/03/14 09:28:13;;;;;;;10.85;7.05;;;;;;;14.05;72.42;99550.84;6096849;23;20135;-87
2024/03/14 09:30:42;;;;;;;9.00;6.80;;;;;;;14.13;72.52;99560.84;6071278;23;20021;-87
2024/03/14 09:33:09;;;;;;;10.32;5.93;;;;;;;14.20;72.42;99567.38;6096966;23;20030;-87
2024/03/14 09:35:44;;;;;;;10.05;6.95;;;;;;;14.26;72.09;99558.13;6096831;23;20093;-87
2024/03/14 09:38:12;;;;;;;9.13;6.72;;;;;;;14.34;72.13;99557.53;6072128;23;20030;-87
2024/03/14 09:40:39;;;;;;;9.07;6.55;;;;;;;14.39;71.48;99558.03;6097075;23;20515;-87
2024/03/14 09:43:13;;;;;;;8.57;6.65;;;;;;;14.41;70.93;99561.41;6070672;23;20022;-87
2024/03/14 09:45:44;;;;;;;10.02;6.25;;;;;;;14.47;70.94;99562.75;6071258;23;20023;-88
2024/03/14 09:48:12;;;;;;;9.23;6.57;;;;;;;14.53;71.58;99562.28;6071679;23;20410;-88
2024/03/14 09:50:39;;;;;;;7.68;6.40;;;;;;;14.59;71.33;99580.31;6070854;23;20523;-87
2024/03/14 09:53:14;;;;;;;9.05;7.22;;;;;;;14.65;70.52;99568.41;6070426;23;20097;-87
2024/03/14 09:55:41;;;;;;;9.48;6.28;;;;;;;14.73;71.17;99563.38;6070325;23;20356;-87
2024/03/14 09:58:08;;;;;;;9.48;6.38;;;;;;;14.83;70.87;99567.97;6096015;23;20022;-87
2024/03/14 10:00:35;;;;;;;10.60;6.70;;;;;;;14.93;70.03;99578.72;6070954;23;20026;-88
2024/03/14 10:03:06;;;;;;;12.82;6.55;;;;;;;15.01;70.15;99556.91;6095498;23;20356;-87
2024/03/14 10:05:35;;;;;;;8.68;6.75;;;;;;;15.11;70.77;99565.81;6071585;23;20037;-87
2024/03/14 10:08:04;;;;;;;8.93;6.38;;;;;;;15.19;70.63;99555.47;6096603;23;20105;-87
2024/03/14 10:10:34;;;;;;;7.28;6.00;;;;;;;15.28;69.82;99545.91;6071320;23;20400;-87
2024/03/14 10:13:01;;;;;;;9.98;6.28;;;;;;;15.39;69.67;99547.69;6070583;23;20041;-87
2024/03/14 10:15:28;;;;;;;8.48;5.80;;;;;;;15.47;69.76;99545.28;6096433;23;20089;-87
2024/03/14 10:17:57;;;;;;;8.82;6.57;;;;;;;15.56;68.57;99545.50;6096630;23;20644;-87
2024/03/14 10:20:24;;;;;;;11.93;5.90;;;;;;;15.63;68.15;99544.03;6070793;23;20018;-88
2024/03/14 10:22:51;;;;;;;8.80;6.40;;;;;;;15.68;67.70;99546.28;6070395;23;20090;-88
2024/03/14 10:25:28;;;;;;;8.52;6.15;;;;;;;15.72;67.99;99532.66;6095683;23;20105;-88
2024/03/14 10:27:57;;;;;;;8.02;6.10;;;;;;;15.77;66.59;99538.41;6096674;23;20526;-88
2024/03/14 10:30:37;;;;;;;8.43;5.85;;;;;;;15.85;67.18;99542.25;6096787;23;20041;-87
2024/03/14 10:33:06;;;;;;;11.52;6.20;;;;;;;15.90;66.90;99529.44;6070317;23;20026;-87
2024/03/14 10:35:36;;;;;;;9.02;6.07;;;;;;;15.96;67.42;99531.59;6095818;23;20057;-88
2024/03/14 10:38:08;;;;;;;8.70;6.43;;;;;;;16.02;66.60;99532.91;6095964;23;20030;-87
2024/03/14 10:40:39;;;;;;;7.40;6.65;;;;;;;16.07;66.18;99549.28;6070605;23;20507;-88
2024/03/14 10:43:09;;;;;;;8.52;6.60;;;;;;;16.17;66.91;99535.25;6094885;23;20026;-88
2024/03/14 10:45:36;;;;;;;8.65;6.07;;;;;;;16.28;67.36;99524.56;6070298;23;20360;-88
2024/03/14 10:48:07;;;;;;;7.85;6.40;;;;;;;16.38;66.28;99516.66;6071074;23;20101;-88
2024/03/14 10:50:36;;;;;;;7.75;6.18;;;;;;;16.51;66.34;99521.75;6071087;23;20022;-88
2024/03/14 10:53:05;;;;;;;7.70;5.85;;;;;;;16.59;65.15;99523.75;6095606;23;20038;-87
2024/03/14 10:55:33;;;;;;;7.10;5.57;;;;;;;16.64;63.36;99534.81;6097054;23;20097;-87
2024/03/14 10:58:04;;;;;;;6.50;5.60;;;;;;;16.67;62.81;99513.28;6096095;23;20049;-88
2024/03/14 11:00:34;;;;;;;8.70;6.05;;;;;;;16.74;64.32;99517.09;6070613;23;20022;-87
2024/03/14 11:03:03;;;;;;;7.38;6.07;;;;;;;16.79;64.02;99514.88;6094146;23;20023;-88
2024/03/14 11:05:31;;;;;;;8.85;6.00;;;;;;;16.84;63.54;99513.63;6070106;23;20036;-88
2024/03/14 11:08:02;;;;;;;6.43;5.80;;;;;;;16.86;62.54;99517.84;6094943;23;20022;-87
2024/03/14 11:10:29;;;;;;;6.95;5.75;;;;;;;16.91;62.93;99514.78;6070017;23;20085;-88
2024/03/14 11:13:09;;;;;;;8.50;5.97;;;;;;;16.92;60.59;99516.47;6094031;23;20581;-88
2024/03/14 11:15:39;;;;;;;10.57;5.68;;;;;;;16.97;61.83;99506.25;6095399;23;20026;-87
2024/03/14 11:18:12;;;;;;;6.82;5.50;;;;;;;17.04;62.23;99525.16;6070024;23;20404;-88
2024/03/14 11:20:43;;;;;;;9.48;6.47;;;;;;;17.06;58.96;99521.47;6069837;23;20032;-88
2024/03/14 11:23:14;;;;;;;8.77;6.40;;;;;;;17.19;61.16;99528.31;6070074;23;20101;-87
2024/03/14 11:25:44;;;;;;;7.65;5.97;;;;;;;17.36;62.08;99523.31;6094553;23;20542;-87
2024/03/14 11:28:13;;;;;;;8.65;6.88;;;;;;;17.56;63.09;99519.72;6095239;23;20026;-88
2024/03/14 11:30:42;;;;;;;10.10;7.05;;;;;;;17.86;63.66;99506.41;6094749;23;20522;-87
2024/03/14 11:33:09;;;;;;;6.88;6.15;;;;;;;18.18;62.35;99528.41;6069872;23;20023;-87
2024/03/14 11:35:42;;;;;;;7.32;6.15;;;;;;;18.55;60.95;99503.63;6069448;23;20085;-87
2024/03/14 11:38:15;;;;;;;7.03;6.30;;;;;;;18.97;59.47;99493.47;6094831;23;20463;-87
2024/03/14 11:40:44;;;;;;;7.40;6.10;;;;;;;19.40;62.39;99483.16;6069375;23;20026;-88
2024/03/14 11:43:18;;;;;;;7.32;5.72;;;;;;;19.87;59.96;99484.72;6069232;23;20538;-88
2024/03/14 11:45:44;;;;;;;7.68;6.25;;;;;;;20.31;60.21;99480.34;6069675;23;20022;-87
2024/03/14 11:48:15;;;;;;;7.65;5.78;;;;;;;20.70;58.42;99485.25;6094815;23;20028;-88
2024/03/14 11:50:42;;;;;;;7.22;5.68;;;;;;;20.94;55.12;99480.19;6069391;23;20028;-89
2024/03/14 11:53:09;;;;;;;7.97;5.78;;;;;;;21.02;54.10;99482.88;6094773;23;20023;-88
2024/03/14 11:55:38;;;;;;;7.65;6.20;;;;;;;21.04;53.89;99485.41;6069565;23;20030;-87
2024/03/14 11:58:14;;;;;;;6.13;5.53;;;;;;;21.09;50.30;99469.69;6094641;23;20109;-87
2024/03/14 12:00:47;;;;;;;9.13;6.00;;;;;;;21.28;54.04;99465.88;6069414;23;20400;-88
2024/03/14 12:03:15;;;;;;;6.20;5.60;;;;;;;21.48;54.47;99463.72;6069007;23;20329;-88
2024/03/14 12:05:51;;;;;;;7.82;5.85;;;;;;;21.65;50.89;99466.41;6094249;23;20053;-88
2024/03/14 12:08:18;;;;;;;7.03;6.28;;;;;;;21.84;54.63;99459.91;6069482;23;20403;-88
2024/03/14 12:10:52;;;;;;;5.95;5.30;;;;;;;21.94;49.71;99459.72;6068799;23;20073;-87
2024/03/14 23:31:16;;;;;;;6.22;4.47;;;;;;;15.29;54.93;99027.06;6094921;23;20018;-89
2024/03/14 23:33:44;;;;;;;6.45;4.32;;;;;;;15.27;54.36;99015.72;6072159;23;20077;-89
2024/03/14 23:36:11;;;;;;;8.00;4.90;;;;;;;15.25;54.66;99021.16;6071982;23;20337;-89
2024/03/14 23:38:43;;;;;;;5.20;4.30;;;;;;;15.21;55.46;99014.44;6071664;23;20029;-89
2024/03/14 23:41:10;;;;;;;6.32;4.70;;;;;;;15.21;54.74;99010.00;6097182;23;20044;-89
2024/03/14 23:43:43;;;;;;;7.10;4.43;;;;;;;15.20;54.96;99010.13;6071462;23;20030;-89
2024/03/14 23:46:11;;;;;;;;;;;;;;;15.18;55.83;99010.25;6071948;23;20437;-89
2024/03/14 23:48:38;;;;;;;6.32;4.00;;;;;;;15.22;54.75;99008.19;6071448;23;19924;-89
2024/03/14 23:51:04;;;;;;;6.97;4.57;;;;;;;15.19;54.78;99009.31;6072069;23;20524;-89
2024/03/14 23:53:35;;;;;;;6.90;4.95;;;;;;;15.17;55.18;99008.59;6071841;23;20022;-89
2024/03/14 23:56:02;;;;;;;6.90;4.88;;;;;;;15.15;55.03;99007.91;6071693;23;20030;-89
2024/03/14 23:58:29;;;;;;;6.18;4.78;;;;;;;15.15;55.34;98999.09;6071883;23;20453;-89
